Time;durP1;ratioP1;P1;durP2;ratioP2;P2;SDS_P1;SDS_P2;PMS_P1;PMS_P2;Temp;Humidity;BMP_temperature;BMP_pressure;BME280_temperature;BME280_humidity;BME280_pressure;Samples;Min_cycle;Max_cycle;Signal;HPM_P1;HPM_P2
2023/08/03 00:02:01;;;;;;;7.75;2.88;;;15.90;99.90;;;;;;7374289;19;20033;-65
2023/08/03 00:04:27;;;;;;;8.95;3.88;;;15.80;99.90;;;;;;7378011;19;20018;-66
2023/08/03 00:06:54;;;;;;;9.48;3.22;;;15.90;99.90;;;;;;7374661;19;20465;-66
2023/08/03 00:09:21;;;;;;;10.23;3.70;;;15.90;99.90;;;;;;7373750;19;20013;-65
2023/08/03 00:11:47;;;;;;;6.30;3.15;;;15.90;99.90;;;;;;7374834;19;20029;-66
2023/08/03 00:14:13;;;;;;;9.38;3.38;;;15.90;99.90;;;;;;7373762;19;20015;-68
2023/08/03 00:16:40;;;;;;;8.88;5.15;;;15.90;99.90;;;;;;7377814;19;20014;-66
2023/08/03 00:19:06;;;;;;;11.52;3.55;;;15.90;99.90;;;;;;7372069;19;20514;-66
2023/08/03 00:21:32;;;;;;;8.35;3.83;;;15.90;99.90;;;;;;7378180;19;20014;-66
2023/08/03 00:23:58;;;;;;;9.98;5.68;;;15.90;99.90;;;;;;7370732;19;20050;-66
2023/08/03 00:26:25;;;;;;;7.15;3.17;;;15.90;99.90;;;;;;7373758;19;20018;-66
2023/08/03 00:28:51;;;;;;;7.30;3.10;;;15.90;99.90;;;;;;7376244;19;20526;-66
2023/08/03 00:31:17;;;;;;;9.93;3.00;;;15.90;99.90;;;;;;7374918;19;20010;-66
2023/08/03 00:33:43;;;;;;;7.20;3.53;;;15.90;99.90;;;;;;7371262;19;20022;-66
2023/08/03 00:36:09;;;;;;;9.00;3.00;;;15.90;99.90;;;;;;7373781;19;20522;-66
2023/08/03 00:38:36;;;;;;;6.32;2.78;;;15.90;99.90;;;;;;7377041;19;20456;-58
2023/08/03 00:41:02;;;;;;;6.45;3.47;;;15.90;99.90;;;;;;7377562;19;20045;-59
2023/08/03 00:43:30;;;;;;;9.88;3.63;;;15.90;99.90;;;;;;7374383;19;20664;-59
2023/08/03 00:45:56;;;;;;;7.80;3.55;;;15.80;99.90;;;;;;7373668;19;20066;-59
2023/08/03 00:48:22;;;;;;;7.20;3.28;;;15.80;99.90;;;;;;7374846;19;20100;-59
2023/08/03 00:50:48;;;;;;;5.68;2.22;;;15.80;99.90;;;;;;7374768;19;20021;-59
2023/08/03 00:53:15;;;;;;;7.55;2.92;;;15.80;99.90;;;;;;7371867;19;20441;-58
2023/08/03 00:55:41;;;;;;;6.93;2.90;;;15.80;99.90;;;;;;7378417;19;20042;-58
2023/08/03 00:58:07;;;;;;;7.00;3.85;;;15.80;99.90;;;;;;7375297;19;20038;-59
2023/08/03 01:00:34;;;;;;;7.60;3.60;;;15.80;99.90;;;;;;7373918;19;20019;-59
2023/08/03 01:03:01;;;;;;;7.43;3.00;;;15.80;99.90;;;;;;7373397;19;20031;-58
2023/08/03 01:05:27;;;;;;;7.00;2.25;;;15.80;99.90;;;;;;7377581;19;20010;-59
2023/08/03 01:07:55;;;;;;;7.80;3.08;;;15.80;99.90;;;;;;7370485;19;20014;-58
2023/08/03 01:10:22;;;;;;;5.15;2.60;;;15.80;99.90;;;;;;7372655;19;20381;-58
2023/08/03 01:12:48;;;;;;;6.97;3.15;;;15.80;99.90;;;;;;7373629;19;20030;-58
2023/08/03 01:15:15;;;;;;;6.88;2.92;;;15.80;99.90;;;;;;7364855;19;20078;-58
2023/08/03 01:17:42;;;;;;;5.40;3.13;;;15.80;99.90;;;;;;7367578;19;20374;-58
2023/08/03 01:20:09;;;;;;;7.57;3.15;;;15.80;99.90;;;;;;7374460;19;20518;-58
2023/08/03 01:22:43;;;;;;;4.45;3.00;;;15.80;99.90;;;;;;7372929;19;21022;-59
2023/08/03 01:25:10;;;;;;;7.95;3.83;;;15.80;99.90;;;;;;7374225;19;20011;-58
2023/08/03 01:27:36;;;;;;;6.00;2.83;;;15.80;99.90;;;;;;7374146;19;20367;-58
2023/08/03 01:30:04;;;;;;;7.88;3.10;;;15.80;99.90;;;;;;7368275;19;20035;-58
2023/08/03 01:32:31;;;;;;;5.18;2.90;;;15.80;99.90;;;;;;7375349;19;20370;-58
2023/08/03 01:34:59;;;;;;;8.38;2.97;;;15.80;99.90;;;;;;7369837;19;20165;-58
2023/08/03 01:37:26;;;;;;;7.03;2.90;;;15.80;99.90;;;;;;7371811;19;20018;-58
2023/08/03 01:39:54;;;;;;;4.68;2.67;;;15.80;99.90;;;;;;7367782;19;20019;-58
2023/08/03 01:42:21;;;;;;;8.73;2.92;;;15.80;99.90;;;;;;7363175;19;20049;-58
2023/08/03 01:44:48;;;;;;;5.30;3.13;;;15.80;99.90;;;;;;7374203;19;20015;-58
2023/08/03 01:47:14;;;;;;;5.45;3.15;;;15.80;99.90;;;;;;7370376;19;20601;-58
2023/08/03 01:49:40;;;;;;;4.72;3.17;;;15.80;99.90;;;;;;7367182;19;20042;-58
2023/08/03 01:52:07;;;;;;;5.10;3.00;;;15.80;99.90;;;;;;7372647;19;20018;-59
2023/08/03 01:54:33;;;;;;;5.45;3.42;;;15.80;99.90;;;;;;7374752;19;20483;-58
2023/08/03 01:56:59;;;;;;;5.45;2.97;;;15.80;99.90;;;;;;7373522;19;20018;-58
2023/08/03 01:59:26;;;;;;;4.07;3.17;;;15.90;99.90;;;;;;7370807;19;20019;-58
2023/08/03 02:01:55;;;;;;;5.90;3.72;;;15.80;99.90;;;;;;7373294;19;20865;-59
2023/08/03 02:04:21;;;;;;;4.72;3.28;;;15.80;99.90;;;;;;7371813;19;20041;-58
2023/08/03 02:06:56;;;;;;;6.00;3.65;;;15.80;99.90;;;;;;7371674;19;20022;-58
2023/08/03 02:09:22;;;;;;;5.35;3.55;;;15.80;99.90;;;;;;7372382;19;20070;-58
2023/08/03 02:11:49;;;;;;;5.65;4.00;;;15.80;99.90;;;;;;7369424;19;20025;-58
2023/08/03 02:14:16;;;;;;;6.75;3.83;;;15.80;99.90;;;;;;7372018;19;20472;-59
2023/08/03 02:16:42;;;;;;;5.65;3.55;;;15.80;99.90;;;;;;7369865;19;20592;-63
2023/08/03 02:19:08;;;;;;;6.15;3.60;;;15.80;99.90;;;;;;7369554;19;20026;-63
2023/08/03 02:21:34;;;;;;;6.07;3.50;;;15.80;99.90;;;;;;7370389;19;20584;-64
2023/08/03 02:24:01;;;;;;;5.75;3.33;;;15.80;99.90;;;;;;7369150;19;20018;-64
2023/08/03 02:26:27;;;;;;;4.72;3.17;;;15.80;99.90;;;;;;7372781;19;20024;-64
2023/08/03 02:28:53;;;;;;;5.43;3.50;;;15.80;99.90;;;;;;7373603;19;20034;-64
2023/08/03 02:31:20;;;;;;;8.77;3.55;;;15.80;99.90;;;;;;7366831;19;20025;-64
2023/08/03 02:33:50;;;;;;;7.53;4.53;;;15.80;99.90;;;;;;7363566;19;20019;-64
2023/08/03 02:36:21;;;;;;;;;;;15.80;99.90;;;;;;7370808;19;20022;-64
2023/08/03 02:38:51;;;;;;;10.77;6.03;;;15.90;99.90;;;;;;7369883;19;20471;-60
2023/08/03 02:41:18;;;;;;;9.35;6.22;;;15.90;99.90;;;;;;7369465;19;20019;-59
2023/08/03 02:43:44;;;;;;;9.80;6.95;;;15.90;99.90;;;;;;7368346;19;20514;-59
2023/08/03 02:46:14;;;;;;;8.80;6.60;;;15.90;99.90;;;;;;7366938;19;20072;-59
2023/08/03 02:48:41;;;;;;;14.25;8.77;;;15.90;99.90;;;;;;7368548;19;20022;-59
2023/08/03 02:51:08;;;;;;;12.90;7.68;;;15.90;99.90;;;;;;7371149;19;20510;-59
2023/08/03 02:53:37;;;;;;;11.90;8.23;;;15.90;99.90;;;;;;7369904;19;20553;-64
2023/08/03 02:56:05;;;;;;;11.98;7.75;;;15.90;99.90;;;;;;7371879;19;20034;-64
2023/08/03 02:58:39;;;;;;;14.52;8.07;;;16.00;99.90;;;;;;7372819;19;20029;-64
2023/08/03 03:01:13;;;;;;;12.07;7.30;;;16.00;99.90;;;;;;7376451;19;20014;-59
2023/08/03 03:03:39;;;;;;;12.43;8.57;;;16.00;99.90;;;;;;7373277;19;20030;-59
2023/08/03 03:06:06;;;;;;;16.08;8.88;;;16.00;99.90;;;;;;7375334;19;20520;-59
2023/08/03 03:08:34;;;;;;;16.20;9.73;;;16.00;99.90;;;;;;7378043;19;20356;-59
2023/08/03 03:11:01;;;;;;;13.70;9.57;;;16.10;99.90;;;;;;7371294;19;20052;-59
2023/08/03 03:13:28;;;;;;;16.98;10.50;;;16.00;99.90;;;;;;7373277;19;20015;-58
2023/08/03 03:15:54;;;;;;;20.00;10.55;;;16.10;99.90;;;;;;7377690;19;20023;-59
2023/08/03 03:18:21;;;;;;;17.42;10.70;;;16.10;99.90;;;;;;7375254;19;20254;-61
2023/08/03 03:20:47;;;;;;;16.92;11.35;;;16.10;99.90;;;;;;7378191;19;20060;-58
2023/08/03 03:23:13;;;;;;;18.38;11.27;;;16.10;99.90;;;;;;7373319;19;20057;-58
2023/08/03 03:25:39;;;;;;;21.40;11.65;;;16.10;99.90;;;;;;7381244;19;20444;-58
2023/08/03 03:28:06;;;;;;;19.90;10.52;;;16.20;99.90;;;;;;7378177;19;20022;-58
2023/08/03 03:30:36;;;;;;;19.17;11.13;;;16.20;99.90;;;;;;7376417;19;20039;-58
2023/08/03 03:33:02;;;;;;;18.83;11.88;;;16.20;99.90;;;;;;7377045;19;20018;-58
2023/08/03 03:35:29;;;;;;;20.42;11.05;;;16.20;99.90;;;;;;7378013;19;20019;-58
2023/08/03 03:37:56;;;;;;;17.38;9.85;;;16.20;99.90;;;;;;7373917;19;20057;-58
2023/08/03 03:40:26;;;;;;;16.77;9.73;;;16.10;99.90;;;;;;7373452;19;20022;-58
2023/08/03 03:42:52;;;;;;;19.55;9.38;;;16.20;99.90;;;;;;7374263;19;20583;-64
2023/08/03 03:45:18;;;;;;;22.73;9.05;;;16.20;99.90;;;;;;7374318;19;20014;-58
2023/08/03 03:47:47;;;;;;;20.65;9.10;;;16.10;99.90;;;;;;7378772;19;20070;-58
2023/08/03 03:50:13;;;;;;;19.83;9.40;;;16.20;99.90;;;;;;7374835;19;20505;-64
2023/08/03 03:52:40;;;;;;;15.38;8.65;;;16.10;99.90;;;;;;7375371;19;20025;-64
2023/08/03 03:55:07;;;;;;;22.23;8.50;;;16.20;99.90;;;;;;7376416;19;20021;-64
2023/08/03 03:57:34;;;;;;;21.20;7.50;;;16.20;99.90;;;;;;7376140;19;20018;-58
2023/08/03 04:00:00;;;;;;;22.80;8.10;;;16.10;99.90;;;;;;7374370;19;20054;-59
2023/08/03 04:02:27;;;;;;;22.35;7.90;;;16.10;99.90;;;;;;7373434;19;20022;-59
2023/08/03 04:04:55;;;;;;;19.08;7.05;;;16.10;99.90;;;;;;7375963;19;20910;-59
2023/08/03 04:07:23;;;;;;;22.77;7.22;;;16.00;99.90;;;;;;7378260;19;20015;-59
2023/08/03 04:09:50;;;;;;;20.20;7.13;;;16.10;99.90;;;;;;7373545;19;20514;-59
2023/08/03 04:12:16;;;;;;;18.25;6.70;;;16.10;99.90;;;;;;7373214;19;20026;-58
2023/08/03 04:14:43;;;;;;;19.50;6.85;;;16.20;99.90;;;;;;7378122;19;20446;-65
2023/08/03 04:17:10;;;;;;;15.63;6.60;;;16.20;99.90;;;;;;7377464;19;20026;-59
2023/08/03 04:19:38;;;;;;;18.65;6.75;;;16.20;99.90;;;;;;7374368;19;20017;-59
2023/08/03 04:22:06;;;;;;;24.48;6.88;;;16.20;99.90;;;;;;7371227;19;20054;-64
2023/08/03 04:24:33;;;;;;;18.45;5.28;;;16.10;99.90;;;;;;7374526;19;20018;-64
2023/08/03 04:27:00;;;;;;;19.55;6.82;;;16.20;99.90;;;;;;7376143;19;20368;-59
2023/08/03 04:29:26;;;;;;;26.95;7.50;;;16.10;99.90;;;;;;7374539;19;20569;-59
2023/08/03 04:31:53;;;;;;;21.00;5.20;;;16.20;99.90;;;;;;7372124;19;20450;-65
2023/08/03 04:34:21;;;;;;;25.27;5.97;;;16.20;99.90;;;;;;7375096;19;20458;-59
2023/08/03 04:36:48;;;;;;;26.17;5.63;;;16.20;99.90;;;;;;7375528;19;20026;-63
2023/08/03 04:39:15;;;;;;;19.70;5.10;;;16.20;99.90;;;;;;7373620;19;20021;-64
2023/08/03 04:41:42;;;;;;;19.00;5.30;;;16.20;99.90;;;;;;7370263;19;20517;-65
2023/08/03 04:44:08;;;;;;;16.88;5.63;;;16.20;99.90;;;;;;7367879;19;20022;-64
2023/08/03 04:46:36;;;;;;;18.23;5.47;;;16.20;99.90;;;;;;7375233;19;20037;-65
2023/08/03 04:49:03;;;;;;;18.38;5.45;;;16.20;99.90;;;;;;7374721;19;20687;-65
2023/08/03 04:51:30;;;;;;;21.05;6.53;;;16.30;99.90;;;;;;7373804;19;20018;-65
2023/08/03 04:53:58;;;;;;;23.27;6.68;;;16.20;99.90;;;;;;7375386;19;20097;-65
2023/08/03 04:56:26;;;;;;;17.20;5.53;;;16.30;99.90;;;;;;7375965;19;20501;-59
2023/08/03 04:58:53;;;;;;;20.23;5.72;;;16.30;99.90;;;;;;7373182;19;20346;-64
2023/08/03 05:01:19;;;;;;;17.83;5.13;;;16.30;99.90;;;;;;7370622;19;20470;-59
2023/08/03 05:03:46;;;;;;;18.50;5.68;;;16.40;99.90;;;;;;7366072;19;20835;-59
2023/08/03 05:06:12;;;;;;;20.15;5.75;;;16.40;99.90;;;;;;7372146;19;20031;-59
2023/08/03 05:08:39;;;;;;;15.00;5.55;;;16.40;99.90;;;;;;7370573;19;20364;-59
2023/08/03 05:11:05;;;;;;;20.65;6.72;;;16.50;99.90;;;;;;7371104;19;20497;-59
2023/08/03 05:13:37;;;;;;;21.63;6.45;;;16.40;99.90;;;;;;7371745;19;20026;-58
2023/08/03 05:16:04;;;;;;;18.75;6.28;;;16.50;99.90;;;;;;7372529;19;20490;-57
2023/08/03 05:18:30;;;;;;;17.15;6.72;;;16.40;99.90;;;;;;7373367;19;20030;-57
2023/08/03 05:20:57;;;;;;;16.95;5.93;;;16.50;99.90;;;;;;7371516;19;20633;-58
2023/08/03 05:23:23;;;;;;;16.60;6.82;;;16.50;99.90;;;;;;7366140;19;20047;-58
2023/08/03 05:25:57;;;;;;;20.75;6.82;;;16.50;99.90;;;;;;7370058;19;20023;-59
2023/08/03 05:28:24;;;;;;;15.60;6.57;;;16.50;99.90;;;;;;7366080;19;20014;-58
2023/08/03 05:30:51;;;;;;;14.18;7.13;;;16.50;99.90;;;;;;7366954;19;20485;-58
2023/08/03 05:33:17;;;;;;;18.45;7.55;;;16.70;99.90;;;;;;7369463;19;20457;-59
2023/08/03 05:35:47;;;;;;;15.95;6.45;;;16.80;99.90;;;;;;7369226;19;20018;-57
2023/08/03 05:38:15;;;;;;;13.57;6.30;;;16.90;99.90;;;;;;7368345;19;20023;-58
2023/08/03 05:40:41;;;;;;;15.43;7.47;;;16.90;99.90;;;;;;7370943;19;20022;-58
2023/08/03 05:43:13;;;;;;;16.92;7.30;;;17.00;99.90;;;;;;7360407;19;20033;-64
2023/08/03 05:45:43;;;;;;;;;;;17.00;99.90;;;;;;7369059;19;20493;-64
2023/08/03 05:48:20;;;;;;;17.90;7.25;;;17.00;99.90;;;;;;7369044;19;19934;-59
2023/08/03 05:50:52;;;;;;;14.85;7.78;;;17.10;99.90;;;;;;7370108;19;20702;-59
2023/08/03 05:53:18;;;;;;;17.02;7.93;;;17.20;99.90;;;;;;7369813;19;20089;-65
2023/08/03 05:55:46;;;;;;;14.23;8.07;;;17.30;99.90;;;;;;7370299;19;20066;-65
2023/08/03 05:58:16;;;;;;;14.27;6.78;;;17.30;99.90;;;;;;7368888;19;20029;-58
2023/08/03 06:00:47;;;;;;;17.23;6.22;;;17.40;99.90;;;;;;7365836;19;20405;-59
2023/08/03 06:03:14;;;;;;;;;;;17.60;99.90;;;;;;7369316;19;20334;-59
2023/08/03 06:05:43;;;;;;;15.75;6.82;;;17.70;99.90;;;;;;7368855;19;19940;-59
2023/08/03 06:08:12;;;;;;;16.45;6.10;;;17.80;99.90;;;;;;7368533;19;20022;-61
2023/08/03 06:10:39;;;;;;;10.32;4.10;;;17.80;99.90;;;;;;7372697;19;20687;-59
2023/08/03 06:13:10;;;;;;;9.63;4.30;;;17.90;99.90;;;;;;7366263;19;21211;-66
2023/08/03 06:15:36;;;;;;;10.80;4.33;;;18.00;99.90;;;;;;7368855;19;20019;-58
2023/08/03 06:18:05;;;;;;;12.02;3.92;;;18.00;99.90;;;;;;7367216;19;20930;-65
2023/08/03 06:20:34;;;;;;;11.05;5.10;;;17.90;99.90;;;;;;7369860;19;20615;-61
2023/08/03 06:23:00;;;;;;;10.25;4.20;;;18.00;99.90;;;;;;7361952;19;20019;-70
2023/08/03 06:25:27;;;;;;;20.48;5.10;;;18.10;99.90;;;;;;7368691;19;21149;-61
2023/08/03 06:27:55;;;;;;;9.57;4.40;;;18.00;99.90;;;;;;7369217;19;20029;-71
2023/08/03 06:30:21;;;;;;;14.98;8.65;;;18.10;99.90;;;;;;7371023;19;20102;-64
2023/08/03 06:32:49;;;;;;;54.03;48.33;;;18.20;99.90;;;;;;7371207;19;20022;-63
2023/08/03 06:35:38;;;;;;;11.27;6.53;;;18.30;99.90;;;;;;7379163;19;20017;-63
2023/08/03 06:38:06;;;;;;;14.48;8.45;;;18.30;99.90;;;;;;7376430;19;20383;-64
2023/08/03 06:40:34;;;;;;;11.70;3.33;;;18.40;99.90;;;;;;7375291;19;20082;-65
2023/08/03 06:43:01;;;;;;;14.75;11.07;;;18.60;99.90;;;;;;7372594;19;20081;-65
2023/08/03 06:45:31;;;;;;;9.15;4.75;;;18.80;99.90;;;;;;7371363;19;20445;-65
2023/08/03 06:48:02;;;;;;;10.23;3.15;;;19.10;99.90;;;;;;7376049;19;20379;-61
2023/08/03 06:50:30;;;;;;;9.48;2.38;;;19.30;99.90;;;;;;7373925;19;21015;-61
2023/08/03 06:52:58;;;;;;;8.93;2.85;;;19.50;99.90;;;;;;7374437;19;20022;-65
2023/08/03 06:55:24;;;;;;;7.53;1.88;;;19.60;99.90;;;;;;7374807;19;20039;-62
2023/08/03 06:57:51;;;;;;;8.25;2.03;;;19.60;99.90;;;;;;7377174;19;20015;-66
2023/08/03 07:00:17;;;;;;;7.57;2.22;;;19.50;99.90;;;;;;7369625;19;20018;-61
2023/08/03 07:02:46;;;;;;;16.23;3.78;;;19.40;99.90;;;;;;7374845;19;20370;-60
2023/08/03 07:05:12;;;;;;;5.85;1.95;;;19.30;99.90;;;;;;7375466;19;20033;-66
2023/08/03 07:07:38;;;;;;;6.32;2.20;;;19.50;99.90;;;;;;7378043;19;20015;-66
2023/08/03 07:10:06;;;;;;;10.20;2.03;;;19.40;99.90;;;;;;7374084;19;20022;-61
2023/08/03 07:12:34;;;;;;;5.95;1.80;;;19.50;99.90;;;;;;7375112;19;20022;-66
2023/08/03 07:15:00;;;;;;;5.35;1.60;;;19.50;99.90;;;;;;7374103;19;20101;-67
2023/08/03 07:17:27;;;;;;;31.98;28.45;;;19.50;99.90;;;;;;7373992;19;20118;-66
2023/08/03 07:19:54;;;;;;;13.32;6.90;;;19.40;99.90;;;;;;7374846;19;20017;-65
2023/08/03 07:22:24;;;;;;;10.10;4.25;;;19.30;99.90;;;;;;7376088;19;20022;-60
2023/08/03 07:24:51;;;;;;;10.38;4.05;;;19.10;99.90;;;;;;7375196;19;20950;-60
2023/08/03 07:27:17;;;;;;;6.82;2.30;;;19.10;99.90;;;;;;7374133;19;20046;-66
2023/08/03 07:29:44;;;;;;;7.38;1.73;;;19.10;99.90;;;;;;7375109;19;20033;-67
2023/08/03 07:32:12;;;;;;;5.38;1.38;;;19.20;99.90;;;;;;7377375;19;20020;-58
2023/08/03 07:34:38;;;;;;;7.40;1.40;;;19.70;99.90;;;;;;7375231;19;20018;-58
2023/08/03 07:37:05;;;;;;;5.68;1.63;;;20.30;99.90;;;;;;7374239;19;20516;-58
2023/08/03 07:39:32;;;;;;;7.05;1.30;;;20.70;99.90;;;;;;7376548;19;20441;-59
2023/08/03 07:41:58;;;;;;;9.25;1.75;;;20.90;99.90;;;;;;7374883;19;20043;-59
2023/08/03 07:44:27;;;;;;;4.47;1.15;;;21.10;99.90;;;;;;7370626;19;20031;-59
2023/08/03 07:46:53;;;;;;;4.22;1.02;;;21.40;99.90;;;;;;7371123;19;20021;-68
2023/08/03 07:49:20;;;;;;;3.92;1.00;;;21.40;99.90;;;;;;7373435;19;20428;-57
2023/08/03 07:51:50;;;;;;;4.22;1.45;;;21.30;99.90;;;;;;7375650;19;20382;-58
2023/08/03 07:54:16;;;;;;;4.90;2.70;;;21.00;99.90;;;;;;7372733;19;20034;-64
2023/08/03 07:56:42;;;;;;;7.85;5.07;;;21.00;99.90;;;;;;7376413;19;20558;-64
2023/08/03 07:59:10;;;;;;;5.07;3.05;;;21.10;99.90;;;;;;7371506;19;20094;-65
2023/08/03 08:01:37;;;;;;;3.13;1.42;;;21.50;99.90;;;;;;7375483;19;20446;-65
2023/08/03 08:04:03;;;;;;;9.25;4.97;;;21.70;99.90;;;;;;7374442;19;20026;-65
2023/08/03 08:06:30;;;;;;;3.67;2.65;;;21.70;99.90;;;;;;7374704;19;20058;-60
2023/08/03 08:08:56;;;;;;;4.40;1.30;;;21.80;99.90;;;;;;7372377;19;20482;-60
2023/08/03 08:11:22;;;;;;;4.82;2.42;;;21.60;99.90;;;;;;7370025;19;20014;-60
2023/08/03 08:13:49;;;;;;;7.28;1.63;;;21.70;99.90;;;;;;7373682;19;20022;-60
2023/08/03 08:16:16;;;;;;;4.72;1.88;;;22.10;99.90;;;;;;7376305;19;20018;-60
2023/08/03 08:18:42;;;;;;;3.95;0.77;;;22.10;99.90;;;;;;7374921;19;20355;-68
2023/08/03 08:21:12;;;;;;;22.98;20.33;;;21.80;99.90;;;;;;7372143;19;20366;-59
2023/08/03 08:23:39;;;;;;;3.25;0.98;;;21.60;99.90;;;;;;7372201;19;20361;-59
2023/08/03 08:26:10;;;;;;;5.15;1.70;;;21.60;99.90;;;;;;7370722;19;20022;-58
2023/08/03 08:28:36;;;;;;;6.25;3.35;;;22.10;99.90;;;;;;7371568;19;20023;-60
2023/08/03 08:31:02;;;;;;;6.47;5.07;;;22.40;99.90;;;;;;7376034;19;20495;-69
2023/08/03 08:33:28;;;;;;;7.63;2.95;;;22.60;99.90;;;;;;7374253;19;20018;-67
2023/08/03 08:35:57;;;;;;;3.38;0.80;;;22.90;99.90;;;;;;7375845;19;20396;-67
2023/08/03 08:38:23;;;;;;;15.65;6.70;;;22.70;99.90;;;;;;7379286;19;20042;-67
2023/08/03 08:40:49;;;;;;;9.95;2.10;;;22.60;99.90;;;;;;7374837;19;20703;-67
2023/08/03 08:43:20;;;;;;;8.27;3.35;;;22.70;99.90;;;;;;7375796;19;21402;-67
2023/08/03 08:45:47;;;;;;;6.18;1.17;;;23.20;99.90;;;;;;7370937;19;20469;-60
2023/08/03 08:48:14;;;;;;;2.58;0.80;;;23.70;99.90;;;;;;7377312;19;20022;-61
2023/08/03 08:50:41;;;;;;;4.82;0.85;;;23.40;99.90;;;;;;7373437;19;20036;-64
2023/08/03 08:53:07;;;;;;;4.50;1.00;;;23.20;99.90;;;;;;7373649;19;20010;-63
2023/08/03 08:55:34;;;;;;;6.95;0.90;;;22.70;99.90;;;;;;7369636;19;20042;-63
2023/08/03 08:58:00;;;;;;;4.40;0.90;;;22.90;99.90;;;;;;7372050;19;20031;-65
2023/08/03 09:00:27;;;;;;;3.60;1.92;;;23.30;99.90;;;;;;7371364;19;20035;-61
2023/08/03 09:03:00;;;;;;;13.15;11.88;;;23.70;99.90;;;;;;7374066;19;20018;-59
2023/08/03 09:05:27;;;;;;;7.97;4.38;;;23.90;99.90;;;;;;7369762;19;20019;-60
2023/08/03 09:08:05;;;;;;;4.88;1.83;;;24.40;99.90;;;;;;7373787;19;20015;-60
2023/08/03 09:10:46;;;;;;;2.72;0.95;;;24.00;99.90;;;;;;7373299;19;20049;-60
2023/08/03 09:13:35;;;;;;;3.38;1.02;;;23.90;99.90;;;;;;7369510;19;20028;-60
2023/08/03 09:16:01;;;;;;;3.70;1.73;;;24.30;99.90;;;;;;7368101;19;20014;-60
2023/08/03 09:18:32;;;;;;;2.30;0.75;;;24.60;99.90;;;;;;7355448;19;20019;-60
2023/08/03 09:21:08;;;;;;;3.03;0.57;;;24.30;99.90;;;;;;7372033;19;20048;-66
2023/08/03 09:23:36;;;;;;;3.30;0.73;;;24.60;99.90;;;;;;7371427;19;20013;-66
2023/08/03 09:26:03;;;;;;;3.22;0.63;;;24.90;99.90;;;;;;7372547;19;20011;-66
2023/08/03 09:28:41;;;;;;;7.45;0.60;;;24.60;99.90;;;;;;7371364;19;20143;-65
2023/08/03 09:31:09;;;;;;;3.22;0.75;;;24.30;99.90;;;;;;7372211;19;20479;-66
2023/08/03 09:33:35;;;;;;;2.92;0.88;;;24.90;99.90;;;;;;7371904;19;20020;-66
2023/08/03 09:36:11;;;;;;;2.75;0.77;;;25.50;99.90;;;;;;7371745;19;20029;-66
2023/08/03 09:38:38;;;;;;;3.05;1.00;;;25.70;99.90;;;;;;7371114;19;22268;-60
2023/08/03 09:41:05;;;;;;;4.22;0.90;;;26.20;99.90;;;;;;7367003;19;20018;-60
2023/08/03 09:43:34;;;;;;;4.82;2.03;;;25.90;99.90;;;;;;7366663;19;20022;-66
2023/08/03 09:46:01;;;;;;;5.95;1.55;;;25.20;99.90;;;;;;7366262;19;20025;-66
2023/08/03 09:48:28;;;;;;;7.10;2.17;;;24.70;99.90;;;;;;7372889;19;20037;-66
2023/08/03 09:50:56;;;;;;;4.03;2.55;;;25.20;99.90;;;;;;7369780;19;20030;-65
2023/08/03 09:53:36;;;;;;;4.97;1.50;;;25.50;99.90;;;;;;7367770;19;20029;-65
2023/08/03 09:56:05;;;;;;;6.32;3.30;;;26.00;99.90;;;;;;7366592;19;20022;-66
2023/08/03 09:59:04;;;;;;;2.80;0.80;;;26.20;99.90;;;;;;7365993;19;20022;-66
2023/08/03 10:01:33;;;;;;;3.22;1.13;;;26.40;99.90;;;;;;7367489;19;20078;-66
2023/08/03 10:04:04;;;;;;;2.75;0.85;;;26.90;99.90;;;;;;7365797;19;20347;-66
2023/08/03 10:06:38;;;;;;;7.00;5.25;;;26.90;99.90;;;;;;7370479;19;20018;-67
2023/08/03 10:09:06;;;;;;;8.55;5.35;;;26.90;99.90;;;;;;7370100;19;20289;-69
2023/08/03 10:11:46;;;;;;;4.38;1.20;;;26.50;99.90;;;;;;7370444;19;20490;-65
2023/08/03 10:14:16;;;;;;;8.77;6.43;;;26.70;99.90;;;;;;7366474;19;20010;-65
2023/08/03 10:16:44;;;;;;;25.27;22.83;;;26.20;99.90;;;;;;7363311;19;20047;-65
2023/08/03 10:19:11;;;;;;;7.00;2.65;;;26.30;99.90;;;;;;7368691;19;20275;-63
2023/08/03 10:21:38;;;;;;;6.82;4.00;;;26.20;99.90;;;;;;7368289;19;20026;-62
2023/08/03 10:24:17;;;;;;;5.05;3.60;;;26.40;99.90;;;;;;7364661;19;20015;-65
2023/08/03 10:26:52;;;;;;;6.78;1.77;;;26.60;99.90;;;;;;7368353;19;20018;-65
2023/08/03 10:29:56;;;;;;;3.80;1.00;;;27.00;99.90;;;;;;7366518;19;20029;-65
2023/08/03 10:32:28;;;;;;;4.35;0.90;;;26.90;99.90;;;;;;7370176;19;20018;-66
2023/08/03 10:34:59;;;;;;;5.95;1.23;;;26.40;99.90;;;;;;7369538;19;20028;-65
2023/08/03 10:37:26;;;;;;;5.63;2.05;;;26.70;99.90;;;;;;7364276;19;20114;-65
2023/08/03 10:39:54;;;;;;;3.22;1.45;;;27.00;99.90;;;;;;7368986;19;20912;-66
2023/08/03 10:42:25;;;;;;;6.68;1.67;;;27.40;99.90;;;;;;7361159;19;20023;-64
2023/08/03 10:44:52;;;;;;;5.97;1.25;;;27.20;99.90;;;;;;7366316;19;20018;-63
2023/08/03 10:47:29;;;;;;;4.25;1.13;;;26.80;99.90;;;;;;7364251;19;20029;-65
2023/08/03 10:49:57;;;;;;;9.55;1.48;;;26.10;99.90;;;;;;7365705;19;20019;-65
2023/08/03 10:52:28;;;;;;;5.78;1.90;;;26.40;99.90;;;;;;7364012;19;20589;-65
2023/08/03 10:54:56;;;;;;;6.53;2.28;;;26.60;99.90;;;;;;7365108;19;20014;-65
2023/08/03 10:57:29;;;;;;;3.88;1.23;;;27.60;99.90;;;;;;7365259;19;20021;-65
2023/08/03 11:00:03;;;;;;;4.50;0.98;;;27.90;99.90;;;;;;7366305;19;20010;-65
2023/08/03 11:02:33;;;;;;;5.40;1.50;;;27.80;99.90;;;;;;7363764;19;20022;-66
2023/08/03 11:05:05;;;;;;;3.72;1.00;;;27.70;99.70;;;;;;7366059;19;20030;-64
2023/08/03 11:07:36;;;;;;;5.25;1.50;;;28.00;99.90;;;;;;7366686;19;20591;-65
2023/08/03 11:10:04;;;;;;;;;;;27.80;99.50;;;;;;7364794;19;20021;-65
2023/08/03 11:12:31;;;;;;;3.65;0.93;;;27.90;96.10;;;;;;7360061;19;19934;-65
2023/08/03 11:14:59;;;;;;;4.50;1.08;;;27.90;96.30;;;;;;7365696;19;20370;-64
2023/08/03 11:17:30;;;;;;;19.35;17.40;;;28.30;97.00;;;;;;7364991;19;20105;-64
2023/08/03 11:19:58;;;;;;;6.47;4.25;;;28.50;97.90;;;;;;7372930;19;20054;-64
2023/08/03 11:22:25;;;;;;;5.15;1.75;;;28.20;98.50;;;;;;7372960;19;20022;-65
2023/08/03 11:24:55;;;;;;;11.35;7.65;;;28.40;99.20;;;;;;7373158;19;20121;-64
2023/08/03 11:27:22;;;;;;;6.07;1.90;;;28.00;99.20;;;;;;7372810;19;20018;-65
2023/08/03 11:29:51;;;;;;;5.88;3.75;;;28.30;99.00;;;;;;7373429;19;20011;-64
2023/08/03 11:32:36;;;;;;;4.45;1.70;;;28.30;97.60;;;;;;7373528;19;20033;-63
2023/08/03 11:35:04;;;;;;;5.40;4.07;;;28.30;95.40;;;;;;7374041;19;20052;-65
2023/08/03 11:37:36;;;;;;;5.90;2.30;;;28.00;93.40;;;;;;7368326;19;20014;-65
2023/08/03 11:40:04;;;;;;;12.13;10.90;;;28.10;96.50;;;;;;7371932;19;20747;-65
2023/08/03 11:42:33;;;;;;;5.32;3.53;;;27.70;96.10;;;;;;7366785;19;20031;-65
2023/08/03 11:44:59;;;;;;;4.75;2.70;;;28.00;96.40;;;;;;7368848;19;20018;-66
2023/08/03 11:47:41;;;;;;;6.28;3.53;;;28.30;96.20;;;;;;7368497;19;20022;-65
2023/08/03 11:50:08;;;;;;;3.45;2.65;;;28.70;96.60;;;;;;7373514;19;20034;-65
2023/08/03 11:52:34;;;;;;;4.00;1.10;;;28.20;96.10;;;;;;7372495;19;20032;-65
2023/08/03 11:55:00;;;;;;;3.65;1.00;;;27.80;97.00;;;;;;7373324;19;20050;-65
2023/08/03 12:00:14;;;;;;;5.35;1.30;;;27.10;99.30;;;;;;7372117;19;20389;-64
2023/08/03 12:02:45;;;;;;;3.70;1.17;;;26.70;99.90;;;;;;7373988;19;20042;-65
2023/08/03 12:05:12;;;;;;;5.38;1.73;;;26.40;99.90;;;;;;7371064;19;20049;-65
2023/08/03 12:07:39;;;;;;;3.88;0.82;;;25.90;99.90;;;;;;7372706;19;20470;-65
2023/08/03 12:10:14;;;;;;;4.88;1.80;;;26.30;99.90;;;;;;7373815;19;20029;-65
2023/08/03 12:12:42;;;;;;;4.20;1.80;;;27.20;99.90;;;;;;7373727;19;20427;-65
2023/08/03 12:15:10;;;;;;;3.60;1.10;;;27.50;99.90;;;;;;7372951;19;20106;-65
2023/08/03 12:17:37;;;;;;;3.83;1.23;;;27.80;99.90;;;;;;7368687;19;20493;-65
2023/08/03 12:20:06;;;;;;;3.03;0.77;;;27.90;99.90;;;;;;7370464;19;20025;-66
2023/08/03 12:22:33;;;;;;;4.65;1.50;;;28.40;99.30;;;;;;7367369;19;20023;-67
2023/08/03 12:25:00;;;;;;;3.00;0.80;;;28.50;98.00;;;;;;7371011;19;20102;-66
2023/08/03 12:27:26;;;;;;;4.68;0.98;;;27.70;99.70;;;;;;7372417;19;20018;-66
2023/08/03 12:29:52;;;;;;;3.92;1.42;;;27.30;99.90;;;;;;7367976;19;20050;-66
2023/08/03 12:32:18;;;;;;;3.80;1.08;;;27.80;99.90;;;;;;7370999;19;20029;-63
2023/08/03 12:34:45;;;;;;;5.28;1.75;;;27.70;99.90;;;;;;7370842;19;20815;-63
2023/08/03 12:37:11;;;;;;;3.25;0.80;;;26.90;99.90;;;;;;7367843;19;20445;-62
2023/08/03 12:39:37;;;;;;;3.95;1.00;;;26.50;99.90;;;;;;7371019;19;20065;-63
2023/08/03 12:42:04;;;;;;;4.70;1.25;;;25.90;99.90;;;;;;7371341;19;20023;-63
2023/08/03 12:44:30;;;;;;;3.38;0.88;;;25.30;99.90;;;;;;7374230;19;20041;-63
2023/08/03 12:46:56;;;;;;;4.30;1.27;;;25.00;99.90;;;;;;7368640;19;20018;-63
2023/08/03 12:49:23;;;;;;;6.25;1.30;;;24.80;99.90;;;;;;7371944;19;20471;-67
2023/08/03 12:51:49;;;;;;;6.88;1.65;;;24.80;99.90;;;;;;7374077;19;20676;-66